createdAt,value
2022-11-03T00:03:00.228Z,99.33
2022-11-03T00:08:37.139Z,99.63
2022-11-03T00:14:09.167Z,100.00
2022-11-03T00:19:46.154Z,100.00
2022-11-03T00:25:23.147Z,100.00
2022-11-03T00:31:01.126Z,100.00
2022-11-03T00:36:41.124Z,100.00
2022-11-03T00:42:18.107Z,100.00
2022-11-03T00:48:10.129Z,100.00
2022-11-03T00:53:48.111Z,100.00
2022-11-03T00:59:25.126Z,100.00
2022-11-03T01:05:21.178Z,100.00
2022-11-03T01:11:12.131Z,100.00
2022-11-03T01:16:49.123Z,100.00
2022-11-03T01:22:28.108Z,100.00
2022-11-03T01:33:47.140Z,100.00
2022-11-03T01:39:27.111Z,100.00
2022-11-03T01:45:04.112Z,100.00
2022-11-03T01:50:41.148Z,100.00
2022-11-03T01:56:20.110Z,100.00
2022-11-03T02:01:57.205Z,100.00
2022-11-03T02:07:40.145Z,100.00
2022-11-03T02:13:25.127Z,100.00
2022-11-03T02:19:02.110Z,100.00
2022-11-03T02:24:48.555Z,100.00
2022-11-03T02:30:30.118Z,100.00
2022-11-03T02:36:13.105Z,100.00
2022-11-03T02:41:52.122Z,100.00
2022-11-03T02:47:32.096Z,100.00
2022-11-03T02:53:09.298Z,100.00
2022-11-03T02:58:52.096Z,100.00
2022-11-03T03:05:01.093Z,100.00
2022-11-03T03:10:42.105Z,100.00
2022-11-03T03:16:26.120Z,100.00
2022-11-03T03:22:07.134Z,100.00
2022-11-03T03:27:49.106Z,100.00
2022-11-03T03:39:10.100Z,100.00
2022-11-03T03:44:48.134Z,100.00
2022-11-03T03:50:25.075Z,100.00
2022-11-03T03:56:06.083Z,100.00
2022-11-03T04:01:43.326Z,100.00
2022-11-03T04:07:42.470Z,100.00
2022-11-03T04:13:40.099Z,100.00
2022-11-03T04:19:35.107Z,100.00
2022-11-03T04:25:13.077Z,100.00
2022-11-03T04:30:54.601Z,100.00
2022-11-03T04:36:36.092Z,100.00
2022-11-03T04:42:13.079Z,100.00
2022-11-03T04:47:51.078Z,100.00
2022-11-03T04:53:30.105Z,100.00
2022-11-03T04:59:08.147Z,100.00
2022-11-03T05:04:46.090Z,100.00
2022-11-03T05:10:30.056Z,100.00
2022-11-03T05:16:09.089Z,100.00
2022-11-03T05:21:47.073Z,100.00
2022-11-03T05:27:28.073Z,100.00
2022-11-03T05:33:05.093Z,100.00
2022-11-03T05:38:47.149Z,100.00
2022-11-03T05:44:39.070Z,100.00
2022-11-03T05:50:27.095Z,100.00
2022-11-03T05:56:05.047Z,100.00
2022-11-03T06:01:45.192Z,100.00
2022-11-03T06:07:32.056Z,100.00
2022-11-03T06:13:14.061Z,100.00
2022-11-03T06:18:52.058Z,100.00
2022-11-03T06:24:41.241Z,100.00
2022-11-03T06:30:36.155Z,100.00
2022-11-03T06:36:18.059Z,100.00
2022-11-03T06:41:55.058Z,100.00
2022-11-03T06:47:51.542Z,100.00
2022-11-03T06:53:41.096Z,95.70
2022-11-03T06:59:18.043Z,74.34
2022-11-03T07:04:56.048Z,75.30
2022-11-03T07:10:33.065Z,72.21
2022-11-03T07:16:13.468Z,63.05
2022-11-03T07:22:21.516Z,58.90
2022-11-03T07:27:59.072Z,61.86
2022-11-03T07:33:39.876Z,67.80
2022-11-03T07:39:28.052Z,62.35
2022-11-03T07:45:11.045Z,62.03
2022-11-03T07:50:48.070Z,65.46
2022-11-03T07:56:34.105Z,70.62
2022-11-03T08:02:12.164Z,66.92
2022-11-03T08:07:49.095Z,67.48
2022-11-03T08:13:27.079Z,64.11
2022-11-03T08:19:04.053Z,62.83
2022-11-03T08:24:41.129Z,61.45
2022-11-03T08:30:25.330Z,62.11
2022-11-03T08:36:23.052Z,62.20
2022-11-03T08:42:00.052Z,60.88
2022-11-03T08:47:38.074Z,61.10
2022-11-03T08:53:15.055Z,58.92
2022-11-03T08:58:52.062Z,57.28
2022-11-03T09:04:30.039Z,58.83
2022-11-03T09:10:24.808Z,57.77
2022-11-03T09:16:04.186Z,58.97
2022-11-03T09:21:42.048Z,57.29
2022-11-03T09:27:19.057Z,57.64
2022-11-03T09:32:56.057Z,56.51
2022-11-03T09:38:34.048Z,56.16
2022-11-03T09:44:13.040Z,53.26
2022-11-03T09:49:51.046Z,54.34
2022-11-03T09:55:32.039Z,52.42
2022-11-03T10:01:09.107Z,50.89
2022-11-03T10:06:46.055Z,49.96
2022-11-03T10:12:25.042Z,47.27
2022-11-03T10:18:03.063Z,47.02
2022-11-03T10:23:40.063Z,46.53
2022-11-03T10:35:02.048Z,47.53
2022-11-03T10:40:50.238Z,44.20
2022-11-03T10:46:50.314Z,43.77
2022-11-03T10:58:11.160Z,42.32
2022-11-03T11:03:56.064Z,39.37
2022-11-03T11:09:37.048Z,41.02
2022-11-03T11:15:15.035Z,40.03
2022-11-03T11:20:55.046Z,41.52
2022-11-03T11:26:57.028Z,40.38
2022-11-03T11:33:13.048Z,40.99
2022-11-03T11:39:11.045Z,40.98
2022-11-03T11:45:18.050Z,39.93
2022-11-03T11:50:55.060Z,39.61
2022-11-03T11:56:33.055Z,39.54
2022-11-03T12:02:11.053Z,40.30
2022-11-03T12:07:49.053Z,39.31
2022-11-03T12:13:55.030Z,39.27
2022-11-03T12:19:55.032Z,35.54
2022-11-03T12:25:52.072Z,36.19
2022-11-03T12:31:32.958Z,37.48
2022-11-03T12:37:21.037Z,36.75
2022-11-03T12:42:59.191Z,36.33
2022-11-03T12:48:37.119Z,37.92
2022-11-03T12:54:19.057Z,37.68
2022-11-03T12:59:58.044Z,38.39
2022-11-03T13:05:36.050Z,37.90
2022-11-03T13:11:33.025Z,37.70
2022-11-03T13:17:10.064Z,37.78
2022-11-03T13:22:48.032Z,38.15
2022-11-03T13:28:25.104Z,38.87
2022-11-03T13:34:02.051Z,39.17
2022-11-03T13:39:43.041Z,40.06
2022-11-03T13:45:21.055Z,39.46
2022-11-03T13:51:00.193Z,40.91
2022-11-03T14:08:33.033Z,43.44
2022-11-03T14:14:11.054Z,44.21
2022-11-03T14:19:52.401Z,44.06
2022-11-03T14:25:30.038Z,45.18
2022-11-03T14:31:10.082Z,45.77
2022-11-03T14:36:47.050Z,46.85
2022-11-03T14:42:27.038Z,47.11
2022-11-03T14:48:05.310Z,47.17
2022-11-03T14:53:42.055Z,48.70
2022-11-03T14:59:19.057Z,51.03
2022-11-03T15:04:57.048Z,53.20
2022-11-03T15:10:37.031Z,53.63
2022-11-03T15:16:14.015Z,54.24
2022-11-03T15:21:52.015Z,54.04
2022-11-03T15:27:29.023Z,55.38
2022-11-03T15:33:06.085Z,55.99
2022-11-03T15:38:44.024Z,56.27
2022-11-03T15:44:21.040Z,57.08
2022-11-03T15:49:58.050Z,57.76
2022-11-03T15:55:37.044Z,58.85
2022-11-03T16:01:14.172Z,59.54
2022-11-03T16:07:07.456Z,59.87
2022-11-03T16:12:46.028Z,60.73
2022-11-03T16:18:23.049Z,61.27
2022-11-03T16:24:00.035Z,62.66
2022-11-03T16:29:38.027Z,63.17
2022-11-03T16:35:08.077Z,63.88
2022-11-03T16:40:45.006Z,64.77
2022-11-03T16:46:23.003Z,65.89
2022-11-03T16:52:00.028Z,66.38
2022-11-03T16:57:39.016Z,66.85
2022-11-03T17:03:17.030Z,67.88
2022-11-03T17:08:54.078Z,67.84
2022-11-03T17:14:31.054Z,68.92
2022-11-03T17:20:09.018Z,69.84
2022-11-03T17:25:46.001Z,70.08
2022-11-03T17:31:23.031Z,70.03
2022-11-03T17:37:02.022Z,70.04
2022-11-03T17:42:41.013Z,67.88
2022-11-03T17:48:18.026Z,67.32
2022-11-03T17:53:58.023Z,67.51
2022-11-03T17:59:36.021Z,67.17
2022-11-03T18:05:20.264Z,67.35
2022-11-03T18:11:04.000Z,67.26
2022-11-03T18:16:41.030Z,67.02
2022-11-03T18:22:18.044Z,67.04
2022-11-03T18:27:57.023Z,67.45
2022-11-03T18:33:39.003Z,67.76
2022-11-03T18:39:16.008Z,68.03
2022-11-03T18:44:57.440Z,66.94
2022-11-03T18:50:37.004Z,66.58
2022-11-03T18:56:14.995Z,66.41
2022-11-03T19:01:53.148Z,66.47
2022-11-03T19:07:35.128Z,66.37
2022-11-03T19:13:12.011Z,66.33
2022-11-03T19:18:51.107Z,66.67
2022-11-03T19:24:28.025Z,66.39
2022-11-03T19:30:05.011Z,65.93
2022-11-03T19:35:47.073Z,66.72
2022-11-03T19:41:39.024Z,67.07
2022-11-03T19:47:16.067Z,67.24
2022-11-03T19:52:58.022Z,67.94
2022-11-03T19:58:36.996Z,67.98
2022-11-03T20:04:14.013Z,67.91
2022-11-03T20:09:53.079Z,68.17
2022-11-03T20:15:31.992Z,68.22
2022-11-03T20:21:08.990Z,69.09
2022-11-03T20:26:48.999Z,68.53
2022-11-03T20:32:26.996Z,68.61
2022-11-03T20:38:14.041Z,69.30
2022-11-03T20:43:55.013Z,68.90
2022-11-03T20:49:31.996Z,68.31
2022-11-03T20:55:12.010Z,69.66
2022-11-03T21:00:50.042Z,70.65
2022-11-03T21:06:28.969Z,71.16
2022-11-03T21:12:06.970Z,70.15
2022-11-03T21:18:02.391Z,71.32
2022-11-03T21:23:44.023Z,71.49
2022-11-03T21:29:33.169Z,72.19
2022-11-03T21:35:13.991Z,71.84
2022-11-03T21:40:56.302Z,72.53
2022-11-03T21:46:32.959Z,72.76
2022-11-03T21:52:11.972Z,72.39
2022-11-03T21:57:48.975Z,71.90
2022-11-03T22:03:25.975Z,72.77
2022-11-03T22:09:03.993Z,73.42
2022-11-03T22:14:54.975Z,73.37
2022-11-03T22:20:48.989Z,72.93
2022-11-03T22:26:46.983Z,72.00
2022-11-03T22:32:27.969Z,73.45
2022-11-03T22:38:15.984Z,73.50
2022-11-03T22:44:10.961Z,74.85
2022-11-03T22:49:47.986Z,75.18
2022-11-03T22:55:24.970Z,75.63
2022-11-03T23:01:03.006Z,75.74
2022-11-03T23:06:41.975Z,75.73
2022-11-03T23:12:18.971Z,75.92
2022-11-03T23:18:13.979Z,75.90
2022-11-03T23:24:09.952Z,74.45
2022-11-03T23:29:46.949Z,76.88
2022-11-03T23:35:24.991Z,77.03
2022-11-03T23:41:01.956Z,77.75
2022-11-03T23:46:51.958Z,78.02
2022-11-03T23:52:29.990Z,77.47
2022-11-03T23:58:23.972Z,77.82
